sensor_id;sensor_type;location;lat;lon;timestamp;P1;durP1;ratioP1;P2;durP2;ratioP2
2001;SDS011;1003;48.002;7.788;2023-02-07T00:00:52;7.10;;;4.00;;
2001;SDS011;1003;48.002;7.788;2023-02-07T00:03:19;5.73;;;3.80;;
2001;SDS011;1003;48.002;7.788;2023-02-07T00:05:48;6.83;;;3.53;;
2001;SDS011;1003;48.002;7.788;2023-02-07T00:08:15;5.33;;;3.63;;
2001;SDS011;1003;48.002;7.788;2023-02-07T00:10:42;6.37;;;3.77;;
2001;SDS011;1003;48.002;7.788;2023-02-07T00:13:12;7.23;;;4.20;;
2001;SDS011;1003;48.002;7.788;2023-02-07T00:15:39;6.13;;;3.50;;
2001;SDS011;1003;48.002;7.788;2023-02-07T00:18:06;6.33;;;3.87;;
2001;SDS011;1003;48.002;7.788;2023-02-07T00:20:33;6.70;;;3.73;;
2001;SDS011;1003;48.002;7.788;2023-02-07T00:23:02;6.13;;;3.97;;
2001;SDS011;1003;48.002;7.788;2023-02-07T00:25:29;6.60;;;3.43;;
2001;SDS011;1003;48.002;7.788;2023-02-07T00:27:56;7.23;;;3.90;;
2001;SDS011;1003;48.002;7.788;2023-02-07T00:30:23;6.80;;;4.20;;
2001;SDS011;1003;48.002;7.788;2023-02-07T00:32:50;5.77;;;3.80;;
2001;SDS011;1003;48.002;7.788;2023-02-07T00:35:17;7.73;;;4.47;;
2001;SDS011;1003;48.002;7.788;2023-02-07T00:37:44;6.87;;;4.00;;
2001;SDS011;1003;48.002;7.788;2023-02-07T00:40:12;6.60;;;4.13;;
2001;SDS011;1003;48.002;7.788;2023-02-07T00:42:39;6.37;;;3.63;;
2001;SDS011;1003;48.002;7.788;2023-02-07T00:45:07;6.47;;;3.93;;
2001;SDS011;1003;48.002;7.788;2023-02-07T00:47:34;8.10;;;3.97;;
2001;SDS011;1003;48.002;7.788;2023-02-07T00:50:02;5.00;;;3.30;;
2001;SDS011;1003;48.002;7.788;2023-02-07T00:52:29;7.87;;;3.87;;
2001;SDS011;1003;48.002;7.788;2023-02-07T00:54:56;5.53;;;3.50;;
2001;SDS011;1003;48.002;7.788;2023-02-07T00:57:25;4.23;;;2.90;;
2001;SDS011;1003;48.002;7.788;2023-02-07T00:59:52;3.97;;;3.10;;
2001;SDS011;1003;48.002;7.788;2023-02-07T01:02:19;3.03;;;2.73;;
2001;SDS011;1003;48.002;7.788;2023-02-07T01:04:46;5.30;;;3.00;;
2001;SDS011;1003;48.002;7.788;2023-02-07T01:07:13;3.47;;;2.60;;
2001;SDS011;1003;48.002;7.788;2023-02-07T01:09:40;5.13;;;2.93;;
2001;SDS011;1003;48.002;7.788;2023-02-07T01:12:07;5.37;;;2.70;;
2001;SDS011;1003;48.002;7.788;2023-02-07T01:14:35;4.77;;;2.67;;
2001;SDS011;1003;48.002;7.788;2023-02-07T01:17:02;4.13;;;2.50;;
2001;SDS011;1003;48.002;7.788;2023-02-07T01:19:29;3.93;;;2.30;;
2001;SDS011;1003;48.002;7.788;2023-02-07T01:21:57;2.87;;;2.50;;
2001;SDS011;1003;48.002;7.788;2023-02-07T01:24:24;4.03;;;2.67;;
2001;SDS011;1003;48.002;7.788;2023-02-07T01:26:51;4.47;;;2.57;;
2001;SDS011;1003;48.002;7.788;2023-02-07T01:29:18;4.37;;;2.60;;
2001;SDS011;1003;48.002;7.788;2023-02-07T01:31:46;3.73;;;2.57;;
2001;SDS011;1003;48.002;7.788;2023-02-07T01:34:13;4.03;;;2.73;;
2001;SDS011;1003;48.002;7.788;2023-02-07T01:36:40;3.80;;;2.83;;
2001;SDS011;1003;48.002;7.788;2023-02-07T01:39:08;4.40;;;2.57;;
2001;SDS011;1003;48.002;7.788;2023-02-07T01:41:35;5.40;;;2.80;;
2001;SDS011;1003;48.002;7.788;2023-02-07T01:44:03;5.03;;;3.00;;
2001;SDS011;1003;48.002;7.788;2023-02-07T01:46:34;5.17;;;3.13;;
2001;SDS011;1003;48.002;7.788;2023-02-07T01:49:04;5.73;;;3.23;;
2001;SDS011;1003;48.002;7.788;2023-02-07T01:51:35;5.03;;;3.07;;
2001;SDS011;1003;48.002;7.788;2023-02-07T01:54:08;6.27;;;3.40;;
2001;SDS011;1003;48.002;7.788;2023-02-07T01:56:39;4.70;;;3.30;;
2001;SDS011;1003;48.002;7.788;2023-02-07T01:59:11;5.83;;;3.30;;
2001;SDS011;1003;48.002;7.788;2023-02-07T02:01:40;6.60;;;3.30;;
2001;SDS011;1003;48.002;7.788;2023-02-07T02:04:11;4.87;;;3.10;;
2001;SDS011;1003;48.002;7.788;2023-02-07T02:06:39;6.17;;;3.27;;
2001;SDS011;1003;48.002;7.788;2023-02-07T02:09:08;6.17;;;3.50;;
2001;SDS011;1003;48.002;7.788;2023-02-07T02:11:53;6.00;;;3.60;;
2001;SDS011;1003;48.002;7.788;2023-02-07T02:14:57;5.17;;;3.37;;
2001;SDS011;1003;48.002;7.788;2023-02-07T02:17:50;7.17;;;3.80;;
2001;SDS011;1003;48.002;7.788;2023-02-07T02:20:50;7.00;;;3.50;;
2001;SDS011;1003;48.002;7.788;2023-02-07T02:27:30;5.67;;;3.40;;
2001;SDS011;1003;48.002;7.788;2023-02-07T02:33:31;7.83;;;3.70;;
2001;SDS011;1003;48.002;7.788;2023-02-07T02:36:16;6.73;;;3.10;;
2001;SDS011;1003;48.002;7.788;2023-02-07T02:38:59;5.87;;;3.20;;
2001;SDS011;1003;48.002;7.788;2023-02-07T02:41:38;5.00;;;3.10;;
2001;SDS011;1003;48.002;7.788;2023-02-07T02:44:19;5.73;;;3.30;;
2001;SDS011;1003;48.002;7.788;2023-02-07T02:46:54;4.30;;;3.07;;
2001;SDS011;1003;48.002;7.788;2023-02-07T02:49:26;5.27;;;3.27;;
2001;SDS011;1003;48.002;7.788;2023-02-07T02:51:55;4.50;;;3.43;;
2001;SDS011;1003;48.002;7.788;2023-02-07T02:54:26;5.77;;;3.23;;
2001;SDS011;1003;48.002;7.788;2023-02-07T02:56:59;6.07;;;3.37;;
2001;SDS011;1003;48.002;7.788;2023-02-07T03:02:56;4.63;;;3.33;;
2001;SDS011;1003;48.002;7.788;2023-02-07T03:05:52;6.47;;;3.63;;
2001;SDS011;1003;48.002;7.788;2023-02-07T03:08:34;5.43;;;3.17;;
2001;SDS011;1003;48.002;7.788;2023-02-07T03:11:11;5.23;;;3.37;;
2001;SDS011;1003;48.002;7.788;2023-02-07T03:13:46;6.37;;;3.70;;
2001;SDS011;1003;48.002;7.788;2023-02-07T03:16:26;5.73;;;3.77;;
2001;SDS011;1003;48.002;7.788;2023-02-07T03:19:02;7.27;;;3.80;;
2001;SDS011;1003;48.002;7.788;2023-02-07T03:21:36;5.50;;;3.30;;
2001;SDS011;1003;48.002;7.788;2023-02-07T03:24:11;6.30;;;3.53;;
2001;SDS011;1003;48.002;7.788;2023-02-07T03:26:43;5.60;;;3.53;;
2001;SDS011;1003;48.002;7.788;2023-02-07T03:29:14;6.17;;;3.73;;
2001;SDS011;1003;48.002;7.788;2023-02-07T03:31:48;7.00;;;3.63;;
2001;SDS011;1003;48.002;7.788;2023-02-07T03:34:22;6.37;;;3.90;;
2001;SDS011;1003;48.002;7.788;2023-02-07T03:36:58;8.50;;;4.60;;
2001;SDS011;1003;48.002;7.788;2023-02-07T03:39:34;7.23;;;3.83;;
2001;SDS011;1003;48.002;7.788;2023-02-07T03:42:02;8.03;;;4.27;;
2001;SDS011;1003;48.002;7.788;2023-02-07T03:44:36;7.10;;;4.10;;
2001;SDS011;1003;48.002;7.788;2023-02-07T03:47:08;7.83;;;4.37;;
2001;SDS011;1003;48.002;7.788;2023-02-07T03:49:35;5.40;;;3.60;;
2001;SDS011;1003;48.002;7.788;2023-02-07T03:52:03;7.53;;;3.73;;
2001;SDS011;1003;48.002;7.788;2023-02-07T03:54:30;6.87;;;4.00;;
2001;SDS011;1003;48.002;7.788;2023-02-07T03:56:57;9.10;;;4.50;;
2001;SDS011;1003;48.002;7.788;2023-02-07T03:59:26;7.30;;;4.17;;
2001;SDS011;1003;48.002;7.788;2023-02-07T04:01:53;5.70;;;3.43;;
2001;SDS011;1003;48.002;7.788;2023-02-07T04:04:20;7.40;;;4.23;;
2001;SDS011;1003;48.002;7.788;2023-02-07T04:06:48;7.20;;;4.37;;
2001;SDS011;1003;48.002;7.788;2023-02-07T04:09:16;9.03;;;4.53;;
2001;SDS011;1003;48.002;7.788;2023-02-07T04:11:43;6.73;;;3.90;;
2001;SDS011;1003;48.002;7.788;2023-02-07T04:14:13;7.23;;;4.00;;
2001;SDS011;1003;48.002;7.788;2023-02-07T04:16:43;6.83;;;4.00;;
2001;SDS011;1003;48.002;7.788;2023-02-07T04:19:11;5.80;;;3.70;;
2001;SDS011;1003;48.002;7.788;2023-02-07T04:21:38;8.63;;;4.27;;
2001;SDS011;1003;48.002;7.788;2023-02-07T04:24:05;8.00;;;4.37;;
2001;SDS011;1003;48.002;7.788;2023-02-07T04:26:33;8.13;;;4.27;;
2001;SDS011;1003;48.002;7.788;2023-02-07T04:29:00;7.73;;;4.43;;
2001;SDS011;1003;48.002;7.788;2023-02-07T04:31:27;7.30;;;4.57;;
2001;SDS011;1003;48.002;7.788;2023-02-07T04:33:55;9.07;;;4.60;;
2001;SDS011;1003;48.002;7.788;2023-02-07T04:36:22;7.53;;;4.40;;
2001;SDS011;1003;48.002;7.788;2023-02-07T04:38:49;9.83;;;4.60;;
2001;SDS011;1003;48.002;7.788;2023-02-07T04:41:16;9.03;;;4.57;;
2001;SDS011;1003;48.002;7.788;2023-02-07T04:43:44;8.47;;;4.90;;
2001;SDS011;1003;48.002;7.788;2023-02-07T04:46:11;8.30;;;4.70;;
2001;SDS011;1003;48.002;7.788;2023-02-07T04:48:38;8.47;;;4.80;;
2001;SDS011;1003;48.002;7.788;2023-02-07T04:51:05;9.63;;;4.90;;
2001;SDS011;1003;48.002;7.788;2023-02-07T04:53:32;8.27;;;5.00;;
2001;SDS011;1003;48.002;7.788;2023-02-07T04:56:00;11.00;;;5.57;;
2001;SDS011;1003;48.002;7.788;2023-02-07T04:58:27;11.63;;;5.60;;
2001;SDS011;1003;48.002;7.788;2023-02-07T05:00:55;10.23;;;5.27;;
2001;SDS011;1003;48.002;7.788;2023-02-07T05:03:22;9.87;;;4.97;;
2001;SDS011;1003;48.002;7.788;2023-02-07T05:05:51;9.37;;;5.30;;
2001;SDS011;1003;48.002;7.788;2023-02-07T05:08:19;10.17;;;5.47;;
2001;SDS011;1003;48.002;7.788;2023-02-07T05:10:50;10.13;;;5.50;;
2001;SDS011;1003;48.002;7.788;2023-02-07T05:13:18;10.83;;;5.70;;
2001;SDS011;1003;48.002;7.788;2023-02-07T05:15:45;8.77;;;5.17;;
2001;SDS011;1003;48.002;7.788;2023-02-07T05:18:14;10.23;;;5.70;;
2001;SDS011;1003;48.002;7.788;2023-02-07T05:20:42;9.00;;;4.97;;
2001;SDS011;1003;48.002;7.788;2023-02-07T05:23:09;13.90;;;7.20;;
2001;SDS011;1003;48.002;7.788;2023-02-07T05:25:36;27.63;;;10.20;;
2001;SDS011;1003;48.002;7.788;2023-02-07T05:28:03;12.03;;;6.60;;
2001;SDS011;1003;48.002;7.788;2023-02-07T05:30:30;11.53;;;6.10;;
2001;SDS011;1003;48.002;7.788;2023-02-07T05:32:57;13.67;;;6.63;;
2001;SDS011;1003;48.002;7.788;2023-02-07T05:35:31;13.87;;;7.50;;
2001;SDS011;1003;48.002;7.788;2023-02-07T05:38:01;10.27;;;5.40;;
2001;SDS011;1003;48.002;7.788;2023-02-07T05:40:31;15.73;;;8.33;;
2001;SDS011;1003;48.002;7.788;2023-02-07T05:42:58;10.70;;;5.97;;
2001;SDS011;1003;48.002;7.788;2023-02-07T05:45:25;11.00;;;5.87;;
2001;SDS011;1003;48.002;7.788;2023-02-07T05:47:53;11.43;;;5.93;;
2001;SDS011;1003;48.002;7.788;2023-02-07T05:50:20;9.67;;;5.47;;
2001;SDS011;1003;48.002;7.788;2023-02-07T05:52:49;10.90;;;5.87;;
2001;SDS011;1003;48.002;7.788;2023-02-07T05:55:16;10.67;;;5.50;;
2001;SDS011;1003;48.002;7.788;2023-02-07T05:57:44;10.23;;;5.77;;
2001;SDS011;1003;48.002;7.788;2023-02-07T06:00:12;9.13;;;5.70;;
2001;SDS011;1003;48.002;7.788;2023-02-07T06:02:43;9.43;;;5.30;;
2001;SDS011;1003;48.002;7.788;2023-02-07T06:05:11;9.57;;;5.77;;
2001;SDS011;1003;48.002;7.788;2023-02-07T06:07:41;9.87;;;5.90;;
2001;SDS011;1003;48.002;7.788;2023-02-07T06:10:10;10.50;;;5.87;;
2001;SDS011;1003;48.002;7.788;2023-02-07T06:12:39;9.17;;;5.83;;
2001;SDS011;1003;48.002;7.788;2023-02-07T06:15:06;8.77;;;5.43;;
2001;SDS011;1003;48.002;7.788;2023-02-07T06:17:34;10.10;;;5.63;;
2001;SDS011;1003;48.002;7.788;2023-02-07T06:20:01;8.43;;;5.50;;
2001;SDS011;1003;48.002;7.788;2023-02-07T06:22:29;10.67;;;5.77;;
2001;SDS011;1003;48.002;7.788;2023-02-07T06:24:56;10.17;;;6.17;;
2001;SDS011;1003;48.002;7.788;2023-02-07T06:27:24;9.60;;;5.57;;
2001;SDS011;1003;48.002;7.788;2023-02-07T06:29:51;9.43;;;5.40;;
2001;SDS011;1003;48.002;7.788;2023-02-07T06:32:18;10.00;;;5.77;;
2001;SDS011;1003;48.002;7.788;2023-02-07T06:34:45;9.93;;;6.00;;
2001;SDS011;1003;48.002;7.788;2023-02-07T06:37:12;10.60;;;6.03;;
2001;SDS011;1003;48.002;7.788;2023-02-07T06:39:39;12.63;;;7.43;;
2001;SDS011;1003;48.002;7.788;2023-02-07T06:42:06;9.87;;;5.93;;
2001;SDS011;1003;48.002;7.788;2023-02-07T06:44:35;8.20;;;4.90;;
2001;SDS011;1003;48.002;7.788;2023-02-07T06:47:02;9.33;;;5.00;;
2001;SDS011;1003;48.002;7.788;2023-02-07T06:49:29;8.07;;;4.70;;
2001;SDS011;1003;48.002;7.788;2023-02-07T06:51:56;7.60;;;4.30;;
2001;SDS011;1003;48.002;7.788;2023-02-07T06:54:23;7.70;;;4.20;;
2001;SDS011;1003;48.002;7.788;2023-02-07T06:56:50;10.30;;;4.90;;
2001;SDS011;1003;48.002;7.788;2023-02-07T06:59:17;6.40;;;3.90;;
2001;SDS011;1003;48.002;7.788;2023-02-07T07:01:46;8.30;;;4.20;;
2001;SDS011;1003;48.002;7.788;2023-02-07T07:04:13;7.27;;;3.93;;
2001;SDS011;1003;48.002;7.788;2023-02-07T07:06:40;7.67;;;4.53;;
2001;SDS011;1003;48.002;7.788;2023-02-07T07:09:07;9.60;;;4.90;;
2001;SDS011;1003;48.002;7.788;2023-02-07T07:11:34;6.77;;;4.40;;
2001;SDS011;1003;48.002;7.788;2023-02-07T07:14:03;8.53;;;4.43;;
2001;SDS011;1003;48.002;7.788;2023-02-07T07:16:30;8.03;;;4.10;;
2001;SDS011;1003;48.002;7.788;2023-02-07T07:18:58;8.37;;;4.90;;
2001;SDS011;1003;48.002;7.788;2023-02-07T07:21:25;7.70;;;4.63;;
2001;SDS011;1003;48.002;7.788;2023-02-07T07:23:53;7.80;;;4.27;;
2001;SDS011;1003;48.002;7.788;2023-02-07T07:26:20;9.83;;;5.07;;
2001;SDS011;1003;48.002;7.788;2023-02-07T07:28:47;7.67;;;4.60;;
2001;SDS011;1003;48.002;7.788;2023-02-07T07:31:15;8.53;;;4.20;;
2001;SDS011;1003;48.002;7.788;2023-02-07T07:33:42;10.27;;;5.13;;
2001;SDS011;1003;48.002;7.788;2023-02-07T07:36:10;9.03;;;4.57;;
2001;SDS011;1003;48.002;7.788;2023-02-07T07:38:37;8.33;;;4.27;;
2001;SDS011;1003;48.002;7.788;2023-02-07T07:41:04;8.00;;;4.47;;
2001;SDS011;1003;48.002;7.788;2023-02-07T07:43:32;13.53;;;6.07;;
2001;SDS011;1003;48.002;7.788;2023-02-07T07:45:59;20.37;;;8.53;;
2001;SDS011;1003;48.002;7.788;2023-02-07T07:48:26;28.37;;;10.57;;
2001;SDS011;1003;48.002;7.788;2023-02-07T07:50:54;17.67;;;8.67;;
2001;SDS011;1003;48.002;7.788;2023-02-07T07:53:23;21.23;;;9.50;;
2001;SDS011;1003;48.002;7.788;2023-02-07T07:55:50;17.43;;;8.80;;
2001;SDS011;1003;48.002;7.788;2023-02-07T07:58:20;10.73;;;6.13;;
2001;SDS011;1003;48.002;7.788;2023-02-07T08:00:48;10.37;;;5.60;;
2001;SDS011;1003;48.002;7.788;2023-02-07T08:03:16;7.57;;;4.60;;
2001;SDS011;1003;48.002;7.788;2023-02-07T08:05:45;9.97;;;4.33;;
2001;SDS011;1003;48.002;7.788;2023-02-07T08:08:13;8.13;;;4.30;;
2001;SDS011;1003;48.002;7.788;2023-02-07T08:10:42;10.13;;;4.97;;
2001;SDS011;1003;48.002;7.788;2023-02-07T08:13:09;9.23;;;4.87;;
2001;SDS011;1003;48.002;7.788;2023-02-07T08:15:36;9.73;;;4.67;;
2001;SDS011;1003;48.002;7.788;2023-02-07T08:18:04;8.93;;;4.60;;
2001;SDS011;1003;48.002;7.788;2023-02-07T08:20:31;11.53;;;5.50;;
2001;SDS011;1003;48.002;7.788;2023-02-07T08:22:59;12.03;;;5.23;;
2001;SDS011;1003;48.002;7.788;2023-02-07T08:25:26;8.10;;;4.80;;
2001;SDS011;1003;48.002;7.788;2023-02-07T08:27:59;9.17;;;5.23;;
2001;SDS011;1003;48.002;7.788;2023-02-07T08:30:26;8.77;;;4.63;;
2001;SDS011;1003;48.002;7.788;2023-02-07T08:32:53;10.67;;;5.10;;
2001;SDS011;1003;48.002;7.788;2023-02-07T08:35:21;8.53;;;5.10;;
2001;SDS011;1003;48.002;7.788;2023-02-07T08:37:50;10.13;;;5.87;;
2001;SDS011;1003;48.002;7.788;2023-02-07T08:40:17;8.77;;;5.03;;
2001;SDS011;1003;48.002;7.788;2023-02-07T08:42:45;11.13;;;5.30;;
2001;SDS011;1003;48.002;7.788;2023-02-07T08:45:13;10.03;;;5.10;;
2001;SDS011;1003;48.002;7.788;2023-02-07T08:47:41;8.67;;;5.13;;
2001;SDS011;1003;48.002;7.788;2023-02-07T08:50:09;10.73;;;5.40;;
2001;SDS011;1003;48.002;7.788;2023-02-07T08:52:37;8.53;;;4.90;;
2001;SDS011;1003;48.002;7.788;2023-02-07T08:55:05;8.53;;;4.80;;
2001;SDS011;1003;48.002;7.788;2023-02-07T08:57:33;10.93;;;6.20;;
2001;SDS011;1003;48.002;7.788;2023-02-07T09:00:01;12.80;;;6.90;;
2001;SDS011;1003;48.002;7.788;2023-02-07T09:02:32;15.50;;;6.77;;
2001;SDS011;1003;48.002;7.788;2023-02-07T09:05:00;12.77;;;7.07;;
2001;SDS011;1003;48.002;7.788;2023-02-07T09:07:27;13.63;;;7.23;;
2001;SDS011;1003;48.002;7.788;2023-02-07T09:09:55;10.53;;;6.40;;
2001;SDS011;1003;48.002;7.788;2023-02-07T09:12:22;11.57;;;6.80;;
2001;SDS011;1003;48.002;7.788;2023-02-07T09:14:49;17.17;;;8.20;;
2001;SDS011;1003;48.002;7.788;2023-02-07T09:17:16;11.87;;;6.50;;
2001;SDS011;1003;48.002;7.788;2023-02-07T09:19:45;12.37;;;6.80;;
2001;SDS011;1003;48.002;7.788;2023-02-07T09:22:12;14.37;;;6.40;;
2001;SDS011;1003;48.002;7.788;2023-02-07T09:24:39;10.00;;;6.07;;
2001;SDS011;1003;48.002;7.788;2023-02-07T09:27:06;11.23;;;6.80;;
2001;SDS011;1003;48.002;7.788;2023-02-07T09:29:33;12.40;;;6.70;;
2001;SDS011;1003;48.002;7.788;2023-02-07T09:32:00;11.83;;;6.77;;
2001;SDS011;1003;48.002;7.788;2023-02-07T09:34:28;14.60;;;7.73;;
2001;SDS011;1003;48.002;7.788;2023-02-07T09:36:58;14.00;;;7.20;;
2001;SDS011;1003;48.002;7.788;2023-02-07T09:39:26;14.77;;;7.43;;
2001;SDS011;1003;48.002;7.788;2023-02-07T09:41:56;11.23;;;6.90;;
2001;SDS011;1003;48.002;7.788;2023-02-07T09:44:42;12.13;;;6.87;;
2001;SDS011;1003;48.002;7.788;2023-02-07T09:47:21;12.20;;;6.80;;
2001;SDS011;1003;48.002;7.788;2023-02-07T09:49:50;11.27;;;6.83;;
2001;SDS011;1003;48.002;7.788;2023-02-07T09:52:25;12.40;;;6.43;;
2001;SDS011;1003;48.002;7.788;2023-02-07T09:54:59;16.30;;;8.27;;
2001;SDS011;1003;48.002;7.788;2023-02-07T09:57:30;11.73;;;6.73;;
2001;SDS011;1003;48.002;7.788;2023-02-07T10:00:04;13.50;;;6.97;;
2001;SDS011;1003;48.002;7.788;2023-02-07T10:02:45;13.27;;;7.27;;
2001;SDS011;1003;48.002;7.788;2023-02-07T10:05:20;12.60;;;7.40;;
2001;SDS011;1003;48.002;7.788;2023-02-07T10:08:00;20.77;;;11.77;;
2001;SDS011;1003;48.002;7.788;2023-02-07T10:10:30;13.57;;;7.60;;
2001;SDS011;1003;48.002;7.788;2023-02-07T10:13:15;11.83;;;7.47;;
2001;SDS011;1003;48.002;7.788;2023-02-07T10:16:09;12.00;;;6.93;;
2001;SDS011;1003;48.002;7.788;2023-02-07T10:19:01;9.93;;;5.77;;
2001;SDS011;1003;48.002;7.788;2023-02-07T10:21:44;10.03;;;6.13;;
2001;SDS011;1003;48.002;7.788;2023-02-07T10:24:32;9.80;;;5.93;;
2001;SDS011;1003;48.002;7.788;2023-02-07T10:27:41;10.97;;;6.30;;
2001;SDS011;1003;48.002;7.788;2023-02-07T10:30:29;12.03;;;6.47;;
2001;SDS011;1003;48.002;7.788;2023-02-07T10:33:01;11.93;;;7.00;;
2001;SDS011;1003;48.002;7.788;2023-02-07T10:35:40;11.27;;;6.67;;
2001;SDS011;1003;48.002;7.788;2023-02-07T10:38:11;12.20;;;7.27;;
2001;SDS011;1003;48.002;7.788;2023-02-07T10:40:52;11.47;;;6.30;;
2001;SDS011;1003;48.002;7.788;2023-02-07T10:43:28;10.53;;;6.17;;
2001;SDS011;1003;48.002;7.788;2023-02-07T10:45:59;12.57;;;7.00;;
2001;SDS011;1003;48.002;7.788;2023-02-07T10:48:30;11.77;;;6.90;;
2001;SDS011;1003;48.002;7.788;2023-02-07T10:50:58;10.47;;;6.13;;
2001;SDS011;1003;48.002;7.788;2023-02-07T10:53:41;12.77;;;6.73;;
2001;SDS011;1003;48.002;7.788;2023-02-07T10:56:14;13.87;;;7.60;;
2001;SDS011;1003;48.002;7.788;2023-02-07T10:58:45;13.53;;;7.33;;
2001;SDS011;1003;48.002;7.788;2023-02-07T11:01:16;11.73;;;7.60;;
2001;SDS011;1003;48.002;7.788;2023-02-07T11:03:45;12.97;;;7.80;;
2001;SDS011;1003;48.002;7.788;2023-02-07T11:06:13;11.73;;;6.90;;
2001;SDS011;1003;48.002;7.788;2023-02-07T11:08:50;12.13;;;7.60;;
2001;SDS011;1003;48.002;7.788;2023-02-07T11:11:39;13.17;;;7.50;;
2001;SDS011;1003;48.002;7.788;2023-02-07T11:14:14;13.13;;;7.53;;
2001;SDS011;1003;48.002;7.788;2023-02-07T11:16:50;12.57;;;7.30;;
2001;SDS011;1003;48.002;7.788;2023-02-07T11:19:20;12.30;;;7.30;;
2001;SDS011;1003;48.002;7.788;2023-02-07T11:21:50;13.63;;;7.77;;
2001;SDS011;1003;48.002;7.788;2023-02-07T11:24:33;13.33;;;7.93;;
2001;SDS011;1003;48.002;7.788;2023-02-07T11:27:04;15.87;;;8.80;;
2001;SDS011;1003;48.002;7.788;2023-02-07T11:29:43;15.97;;;8.57;;
2001;SDS011;1003;48.002;7.788;2023-02-07T11:32:15;15.57;;;8.60;;
2001;SDS011;1003;48.002;7.788;2023-02-07T11:34:45;13.23;;;8.27;;
2001;SDS011;1003;48.002;7.788;2023-02-07T11:37:17;14.90;;;8.27;;
2001;SDS011;1003;48.002;7.788;2023-02-07T11:39:50;13.43;;;7.87;;
2001;SDS011;1003;48.002;7.788;2023-02-07T11:42:22;12.67;;;8.30;;
2001;SDS011;1003;48.002;7.788;2023-02-07T11:44:55;14.10;;;8.33;;
2001;SDS011;1003;48.002;7.788;2023-02-07T11:47:27;16.03;;;9.03;;
2001;SDS011;1003;48.002;7.788;2023-02-07T11:49:57;15.03;;;8.53;;
2001;SDS011;1003;48.002;7.788;2023-02-07T11:52:29;12.77;;;7.93;;
2001;SDS011;1003;48.002;7.788;2023-02-07T11:54:59;14.20;;;7.97;;
2001;SDS011;1003;48.002;7.788;2023-02-07T11:57:34;15.03;;;8.63;;
2001;SDS011;1003;48.002;7.788;2023-02-07T12:00:03;16.37;;;9.03;;
2001;SDS011;1003;48.002;7.788;2023-02-07T12:02:42;14.27;;;8.27;;
2001;SDS011;1003;48.002;7.788;2023-02-07T12:05:18;13.43;;;8.23;;
2001;SDS011;1003;48.002;7.788;2023-02-07T12:07:50;10.87;;;7.60;;
2001;SDS011;1003;48.002;7.788;2023-02-07T12:10:26;13.40;;;8.20;;
2001;SDS011;1003;48.002;7.788;2023-02-07T12:12:59;14.30;;;7.90;;
2001;SDS011;1003;48.002;7.788;2023-02-07T12:15:33;11.60;;;7.43;;
2001;SDS011;1003;48.002;7.788;2023-02-07T12:18:09;13.63;;;8.50;;
2001;SDS011;1003;48.002;7.788;2023-02-07T12:20:51;13.63;;;8.30;;
2001;SDS011;1003;48.002;7.788;2023-02-07T12:23:29;13.47;;;8.17;;
2001;SDS011;1003;48.002;7.788;2023-02-07T12:26:12;12.97;;;7.53;;
2001;SDS011;1003;48.002;7.788;2023-02-07T12:28:50;11.77;;;8.03;;
2001;SDS011;1003;48.002;7.788;2023-02-07T12:31:42;15.40;;;8.47;;
2001;SDS011;1003;48.002;7.788;2023-02-07T12:34:22;14.03;;;8.07;;
2001;SDS011;1003;48.002;7.788;2023-02-07T12:36:59;15.93;;;8.40;;
2001;SDS011;1003;48.002;7.788;2023-02-07T12:39:38;13.97;;;8.23;;
2001;SDS011;1003;48.002;7.788;2023-02-07T12:42:19;12.97;;;8.33;;
2001;SDS011;1003;48.002;7.788;2023-02-07T12:45:03;15.43;;;8.33;;
2001;SDS011;1003;48.002;7.788;2023-02-07T12:47:41;14.17;;;8.37;;
2001;SDS011;1003;48.002;7.788;2023-02-07T12:50:30;14.00;;;8.13;;
2001;SDS011;1003;48.002;7.788;2023-02-07T12:53:27;12.63;;;8.27;;
2001;SDS011;1003;48.002;7.788;2023-02-07T12:56:19;16.93;;;8.83;;
2001;SDS011;1003;48.002;7.788;2023-02-07T12:59:08;15.03;;;7.87;;
2001;SDS011;1003;48.002;7.788;2023-02-07T13:01:51;13.67;;;8.60;;
2001;SDS011;1003;48.002;7.788;2023-02-07T13:04:44;14.43;;;7.83;;
2001;SDS011;1003;48.002;7.788;2023-02-07T13:07:29;12.83;;;8.13;;
2001;SDS011;1003;48.002;7.788;2023-02-07T13:10:17;14.17;;;8.40;;
2001;SDS011;1003;48.002;7.788;2023-02-07T13:12:52;14.10;;;8.90;;
2001;SDS011;1003;48.002;7.788;2023-02-07T13:15:31;14.67;;;8.70;;
2001;SDS011;1003;48.002;7.788;2023-02-07T13:18:10;15.03;;;8.97;;
2001;SDS011;1003;48.002;7.788;2023-02-07T13:20:50;14.33;;;8.97;;
2001;SDS011;1003;48.002;7.788;2023-02-07T13:23:30;13.67;;;9.37;;
2001;SDS011;1003;48.002;7.788;2023-02-07T13:26:01;15.47;;;9.10;;
2001;SDS011;1003;48.002;7.788;2023-02-07T13:28:37;15.33;;;9.13;;
2001;SDS011;1003;48.002;7.788;2023-02-07T13:31:14;14.43;;;8.87;;
2001;SDS011;1003;48.002;7.788;2023-02-07T13:33:46;14.00;;;8.97;;
2001;SDS011;1003;48.002;7.788;2023-02-07T13:36:16;16.13;;;9.17;;
2001;SDS011;1003;48.002;7.788;2023-02-07T13:39:06;15.80;;;9.03;;
2001;SDS011;1003;48.002;7.788;2023-02-07T13:41:51;14.53;;;8.67;;
2001;SDS011;1003;48.002;7.788;2023-02-07T13:44:35;15.60;;;9.03;;
2001;SDS011;1003;48.002;7.788;2023-02-07T13:50:22;12.67;;;8.17;;
2001;SDS011;1003;48.002;7.788;2023-02-07T13:53:05;15.50;;;8.10;;
2001;SDS011;1003;48.002;7.788;2023-02-07T13:55:53;15.10;;;8.57;;
2001;SDS011;1003;48.002;7.788;2023-02-07T14:01:37;15.70;;;8.10;;
2001;SDS011;1003;48.002;7.788;2023-02-07T14:04:16;15.60;;;8.97;;
2001;SDS011;1003;48.002;7.788;2023-02-07T14:06:54;14.40;;;9.03;;
2001;SDS011;1003;48.002;7.788;2023-02-07T14:09:30;14.37;;;8.90;;
2001;SDS011;1003;48.002;7.788;2023-02-07T14:12:01;13.30;;;8.90;;
2001;SDS011;1003;48.002;7.788;2023-02-07T14:14:33;15.57;;;9.13;;
2001;SDS011;1003;48.002;7.788;2023-02-07T14:17:02;15.43;;;8.67;;
2001;SDS011;1003;48.002;7.788;2023-02-07T14:19:48;12.77;;;8.40;;
2001;SDS011;1003;48.002;7.788;2023-02-07T14:22:23;13.77;;;8.23;;
2001;SDS011;1003;48.002;7.788;2023-02-07T14:30:56;13.30;;;8.33;;
2001;SDS011;1003;48.002;7.788;2023-02-07T14:34:07;13.73;;;8.53;;
2001;SDS011;1003;48.002;7.788;2023-02-07T14:36:38;13.67;;;8.30;;
2001;SDS011;1003;48.002;7.788;2023-02-07T14:39:21;13.40;;;8.23;;
2001;SDS011;1003;48.002;7.788;2023-02-07T14:41:59;15.47;;;7.97;;
2001;SDS011;1003;48.002;7.788;2023-02-07T14:44:41;14.93;;;7.97;;
2001;SDS011;1003;48.002;7.788;2023-02-07T14:47:17;13.07;;;8.30;;
2001;SDS011;1003;48.002;7.788;2023-02-07T14:49:51;12.97;;;8.03;;
2001;SDS011;1003;48.002;7.788;2023-02-07T14:52:22;13.73;;;8.33;;
2001;SDS011;1003;48.002;7.788;2023-02-07T14:54:56;14.67;;;8.30;;
2001;SDS011;1003;48.002;7.788;2023-02-07T14:57:32;14.50;;;8.23;;
2001;SDS011;1003;48.002;7.788;2023-02-07T15:00:21;15.40;;;8.20;;
2001;SDS011;1003;48.002;7.788;2023-02-07T15:02:56;13.67;;;8.17;;
2001;SDS011;1003;48.002;7.788;2023-02-07T15:05:27;11.70;;;7.63;;
2001;SDS011;1003;48.002;7.788;2023-02-07T15:08:14;11.63;;;7.20;;
2001;SDS011;1003;48.002;7.788;2023-02-07T15:10:50;13.77;;;8.10;;
2001;SDS011;1003;48.002;7.788;2023-02-07T15:13:24;14.17;;;8.00;;
2001;SDS011;1003;48.002;7.788;2023-02-07T15:15:56;13.47;;;7.17;;
2001;SDS011;1003;48.002;7.788;2023-02-07T15:18:29;11.77;;;7.90;;
2001;SDS011;1003;48.002;7.788;2023-02-07T15:21:03;14.43;;;8.70;;
2001;SDS011;1003;48.002;7.788;2023-02-07T15:23:46;12.50;;;7.67;;
2001;SDS011;1003;48.002;7.788;2023-02-07T15:26:20;15.73;;;8.47;;
2001;SDS011;1003;48.002;7.788;2023-02-07T15:28:54;14.50;;;8.17;;
2001;SDS011;1003;48.002;7.788;2023-02-07T15:31:36;14.27;;;7.93;;
2001;SDS011;1003;48.002;7.788;2023-02-07T15:34:05;15.03;;;8.80;;
2001;SDS011;1003;48.002;7.788;2023-02-07T15:36:42;14.60;;;9.27;;
2001;SDS011;1003;48.002;7.788;2023-02-07T15:39:13;15.47;;;9.00;;
2001;SDS011;1003;48.002;7.788;2023-02-07T15:41:44;21.77;;;11.63;;
2001;SDS011;1003;48.002;7.788;2023-02-07T15:44:18;15.00;;;8.70;;
2001;SDS011;1003;48.002;7.788;2023-02-07T15:46:52;13.57;;;7.87;;
2001;SDS011;1003;48.002;7.788;2023-02-07T15:49:25;14.77;;;8.53;;
2001;SDS011;1003;48.002;7.788;2023-02-07T15:52:11;14.60;;;8.80;;
2001;SDS011;1003;48.002;7.788;2023-02-07T15:54:48;13.03;;;7.90;;
2001;SDS011;1003;48.002;7.788;2023-02-07T15:57:22;15.03;;;8.00;;
2001;SDS011;1003;48.002;7.788;2023-02-07T15:59:52;14.60;;;7.87;;
2001;SDS011;1003;48.002;7.788;2023-02-07T16:02:22;15.57;;;9.03;;